sensor_id;sensor_type;location;lat;lon;timestamp;pressure;altitude;pressure_sealevel;temperature;humidity
38530;BME280;24301;54.332;48.386;2023-04-26T00:01:16;98335.50;;;10.10;100.00
38530;BME280;24301;54.332;48.386;2023-04-26T00:03:42;98328.53;;;10.09;100.00
38530;BME280;24301;54.332;48.386;2023-04-26T00:06:07;98345.19;;;10.07;100.00
38530;BME280;24301;54.332;48.386;2023-04-26T00:08:35;98329.38;;;10.09;100.00
38530;BME280;24301;54.332;48.386;2023-04-26T00:11:01;98325.00;;;10.10;100.00
38530;BME280;24301;54.332;48.386;2023-04-26T00:13:27;98306.59;;;10.11;100.00
38530;BME280;24301;54.332;48.386;2023-04-26T00:15:52;98329.34;;;10.11;100.00
38530;BME280;24301;54.332;48.386;2023-04-26T00:18:18;98307.53;;;10.09;100.00
38530;BME280;24301;54.332;48.386;2023-04-26T00:20:44;98304.06;;;10.06;100.00
38530;BME280;24301;54.332;48.386;2023-04-26T00:23:10;98304.09;;;10.05;100.00
38530;BME280;24301;54.332;48.386;2023-04-26T00:25:36;98332.19;;;10.01;100.00
38530;BME280;24301;54.332;48.386;2023-04-26T00:28:03;98295.28;;;10.07;100.00
38530;BME280;24301;54.332;48.386;2023-04-26T00:30:29;98305.81;;;10.07;100.00
38530;BME280;24301;54.332;48.386;2023-04-26T00:32:55;98302.34;;;10.05;100.00
38530;BME280;24301;54.332;48.386;2023-04-26T00:35:21;98304.22;;;10.00;100.00
38530;BME280;24301;54.332;48.386;2023-04-26T00:37:46;98299.91;;;9.98;100.00
38530;BME280;24301;54.332;48.386;2023-04-26T00:40:13;98321.81;;;9.95;100.00
38530;BME280;24301;54.332;48.386;2023-04-26T00:42:40;98297.44;;;9.90;100.00
38530;BME280;24301;54.332;48.386;2023-04-26T00:45:07;98312.34;;;9.89;100.00
38530;BME280;24301;54.332;48.386;2023-04-26T00:47:34;98285.34;;;9.83;100.00
38530;BME280;24301;54.332;48.386;2023-04-26T00:50:01;98288.06;;;9.80;100.00
38530;BME280;24301;54.332;48.386;2023-04-26T00:52:30;98304.69;;;9.78;100.00
38530;BME280;24301;54.332;48.386;2023-04-26T00:54:56;98285.44;;;9.80;100.00
38530;BME280;24301;54.332;48.386;2023-04-26T00:57:22;98293.31;;;9.78;100.00
38530;BME280;24301;54.332;48.386;2023-04-26T00:59:48;98281.06;;;9.78;100.00
38530;BME280;24301;54.332;48.386;2023-04-26T01:02:15;98293.31;;;9.78;100.00
38530;BME280;24301;54.332;48.386;2023-04-26T01:04:42;98282.00;;;9.76;100.00
38530;BME280;24301;54.332;48.386;2023-04-26T01:07:10;98292.53;;;9.74;100.00
38530;BME280;24301;54.332;48.386;2023-04-26T01:09:36;98275.00;;;9.76;100.00
38530;BME280;24301;54.332;48.386;2023-04-26T01:12:02;98262.72;;;9.78;100.00
38530;BME280;24301;54.332;48.386;2023-04-26T01:14:30;98274.94;;;9.80;100.00
38530;BME280;24301;54.332;48.386;2023-04-26T01:16:59;98284.56;;;9.79;100.00
38530;BME280;24301;54.332;48.386;2023-04-26T01:27:09;98256.97;;;9.61;100.00
38530;BME280;24301;54.332;48.386;2023-04-26T01:29:46;98260.31;;;9.68;100.00
38530;BME280;24301;54.332;48.386;2023-04-26T01:32:15;98256.81;;;9.67;100.00
38530;BME280;24301;54.332;48.386;2023-04-26T01:37:58;98249.75;;;9.71;100.00
38530;BME280;24301;54.332;48.386;2023-04-26T01:40:38;98240.97;;;9.72;100.00
38530;BME280;24301;54.332;48.386;2023-04-26T01:43:31;98250.59;;;9.71;100.00
38530;BME280;24301;54.332;48.386;2023-04-26T01:45:57;98241.13;;;9.66;100.00
38530;BME280;24301;54.332;48.386;2023-04-26T01:48:30;98254.13;;;9.70;100.00
38530;BME280;24301;54.332;48.386;2023-04-26T01:51:00;98247.28;;;9.65;100.00
38530;BME280;24301;54.332;48.386;2023-04-26T01:53:26;98249.00;;;9.66;100.00
38530;BME280;24301;54.332;48.386;2023-04-26T01:55:52;98253.41;;;9.63;100.00
38530;BME280;24301;54.332;48.386;2023-04-26T01:58:20;98256.06;;;9.62;100.00
38530;BME280;24301;54.332;48.386;2023-04-26T02:00:48;98240.38;;;9.60;100.00
38530;BME280;24301;54.332;48.386;2023-04-26T02:03:14;98245.63;;;9.59;100.00
38530;BME280;24301;54.332;48.386;2023-04-26T02:05:39;98252.63;;;9.60;100.00
38530;BME280;24301;54.332;48.386;2023-04-26T02:08:06;98232.75;;;9.49;100.00
38530;BME280;24301;54.332;48.386;2023-04-26T02:10:38;98230.13;;;9.49;100.00
38530;BME280;24301;54.332;48.386;2023-04-26T02:13:16;98234.56;;;9.44;100.00
38530;BME280;24301;54.332;48.386;2023-04-26T02:15:45;98231.13;;;9.42;100.00
38530;BME280;24301;54.332;48.386;2023-04-26T02:18:13;98232.09;;;9.38;100.00
38530;BME280;24301;54.332;48.386;2023-04-26T02:20:42;98234.75;;;9.37;100.00
38530;BME280;24301;54.332;48.386;2023-04-26T02:23:09;98218.97;;;9.38;100.00
38530;BME280;24301;54.332;48.386;2023-04-26T02:25:35;98218.16;;;9.36;100.00
38530;BME280;24301;54.332;48.386;2023-04-26T02:28:02;98243.56;;;9.32;100.00
38530;BME280;24301;54.332;48.386;2023-04-26T02:30:28;98233.16;;;9.29;100.00
38530;BME280;24301;54.332;48.386;2023-04-26T02:32:55;98217.38;;;9.31;100.00
38530;BME280;24301;54.332;48.386;2023-04-26T02:35:22;98205.13;;;9.31;100.00
38530;BME280;24301;54.332;48.386;2023-04-26T02:37:49;98207.72;;;9.33;100.00
38530;BME280;24301;54.332;48.386;2023-04-26T02:40:18;98217.47;;;9.28;100.00
38530;BME280;24301;54.332;48.386;2023-04-26T02:47:14;98227.13;;;9.26;100.00
38530;BME280;24301;54.332;48.386;2023-04-26T02:50:51;98205.41;;;9.19;100.00
38530;BME280;24301;54.332;48.386;2023-04-26T02:53:18;98231.63;;;9.17;100.00
38530;BME280;24301;54.332;48.386;2023-04-26T02:55:44;98210.78;;;9.13;100.00
38530;BME280;24301;54.332;48.386;2023-04-26T02:58:09;98225.56;;;9.15;100.00
38530;BME280;24301;54.332;48.386;2023-04-26T03:00:35;98211.59;;;9.15;100.00
38530;BME280;24301;54.332;48.386;2023-04-26T03:03:01;98200.19;;;9.17;100.00
38530;BME280;24301;54.332;48.386;2023-04-26T03:05:27;98194.88;;;9.20;100.00
38530;BME280;24301;54.332;48.386;2023-04-26T03:07:53;98206.22;;;9.23;100.00
38530;BME280;24301;54.332;48.386;2023-04-26T03:10:19;98184.28;;;9.27;100.00
38530;BME280;24301;54.332;48.386;2023-04-26T03:12:46;98183.28;;;9.31;100.00
38530;BME280;24301;54.332;48.386;2023-04-26T03:15:14;98191.84;;;9.39;100.00
38530;BME280;24301;54.332;48.386;2023-04-26T03:17:41;98189.16;;;9.42;100.00
38530;BME280;24301;54.332;48.386;2023-04-26T03:20:08;98189.09;;;9.45;100.00
38530;BME280;24301;54.332;48.386;2023-04-26T03:22:35;98204.00;;;9.43;100.00
38530;BME280;24301;54.332;48.386;2023-04-26T03:25:01;98191.78;;;9.42;100.00
38530;BME280;24301;54.332;48.386;2023-04-26T03:27:32;98186.47;;;9.45;100.00
38530;BME280;24301;54.332;48.386;2023-04-26T03:29:59;98186.41;;;9.48;100.00
38530;BME280;24301;54.332;48.386;2023-04-26T03:32:25;98189.66;;;9.60;100.00
38530;BME280;24301;54.332;48.386;2023-04-26T03:34:51;98191.28;;;9.64;100.00
38530;BME280;24301;54.332;48.386;2023-04-26T03:37:17;98206.94;;;9.69;100.00
38530;BME280;24301;54.332;48.386;2023-04-26T03:39:47;98193.91;;;9.66;100.00
38530;BME280;24301;54.332;48.386;2023-04-26T03:42:15;98195.50;;;9.71;100.00
38530;BME280;24301;54.332;48.386;2023-04-26T03:44:41;98188.56;;;9.69;100.00
38530;BME280;24301;54.332;48.386;2023-04-26T03:47:07;98200.81;;;9.68;100.00
38530;BME280;24301;54.332;48.386;2023-04-26T03:49:33;98197.28;;;9.71;100.00
38530;BME280;24301;54.332;48.386;2023-04-26T03:51:58;98209.63;;;9.66;100.00
38530;BME280;24301;54.332;48.386;2023-04-26T03:54:24;98191.28;;;9.64;100.00
38530;BME280;24301;54.332;48.386;2023-04-26T03:56:50;98207.03;;;9.64;100.00
38530;BME280;24301;54.332;48.386;2023-04-26T03:59:17;98202.75;;;9.61;100.00
38530;BME280;24301;54.332;48.386;2023-04-26T04:01:43;98203.69;;;9.57;100.00
38530;BME280;24301;54.332;48.386;2023-04-26T04:04:09;98208.00;;;9.60;100.00
38530;BME280;24301;54.332;48.386;2023-04-26T04:06:35;98190.53;;;9.59;100.00
38530;BME280;24301;54.332;48.386;2023-04-26T04:09:01;98201.19;;;9.51;100.00
38530;BME280;24301;54.332;48.386;2023-04-26T04:11:27;98192.41;;;9.54;100.00
38530;BME280;24301;54.332;48.386;2023-04-26T04:13:53;98188.91;;;9.55;100.00
38530;BME280;24301;54.332;48.386;2023-04-26T04:16:19;98189.63;;;9.61;100.00
38530;BME280;24301;54.332;48.386;2023-04-26T04:18:45;98196.69;;;9.58;100.00
38530;BME280;24301;54.332;48.386;2023-04-26T04:21:11;98194.06;;;9.58;100.00
38530;BME280;24301;54.332;48.386;2023-04-26T04:23:37;98182.59;;;9.62;100.00
38530;BME280;24301;54.332;48.386;2023-04-26T04:26:07;98192.03;;;9.69;100.00
38530;BME280;24301;54.332;48.386;2023-04-26T04:28:33;98188.41;;;9.76;100.00
38530;BME280;24301;54.332;48.386;2023-04-26T04:30:59;98183.97;;;9.78;100.00
38530;BME280;24301;54.332;48.386;2023-04-26T04:33:26;98173.41;;;9.82;100.00
38530;BME280;24301;54.332;48.386;2023-04-26T04:35:54;98187.34;;;9.84;100.00
38530;BME280;24301;54.332;48.386;2023-04-26T04:38:20;98181.16;;;9.86;100.00
38530;BME280;24301;54.332;48.386;2023-04-26T04:40:49;98178.59;;;9.83;100.00
38530;BME280;24301;54.332;48.386;2023-04-26T04:43:16;98180.28;;;9.86;100.00
38530;BME280;24301;54.332;48.386;2023-04-26T04:45:43;98176.63;;;9.93;100.00
38530;BME280;24301;54.332;48.386;2023-04-26T04:48:09;98180.97;;;9.94;100.00
38530;BME280;24301;54.332;48.386;2023-04-26T04:50:40;98171.22;;;9.99;100.00
38530;BME280;24301;54.332;48.386;2023-04-26T04:53:07;98176.25;;;10.09;100.00
38530;BME280;24301;54.332;48.386;2023-04-26T04:55:37;98178.63;;;10.18;100.00
38530;BME280;24301;54.332;48.386;2023-04-26T04:58:03;98175.88;;;10.24;100.00
38530;BME280;24301;54.332;48.386;2023-04-26T05:00:31;98173.00;;;10.33;100.00
38530;BME280;24301;54.332;48.386;2023-04-26T05:03:17;98172.09;;;10.33;100.00
38530;BME280;24301;54.332;48.386;2023-04-26T05:05:43;98181.59;;;10.39;100.00
38530;BME280;24301;54.332;48.386;2023-04-26T05:08:10;98169.47;;;10.34;100.00
38530;BME280;24301;54.332;48.386;2023-04-26T05:10:36;98174.78;;;10.31;100.00
38530;BME280;24301;54.332;48.386;2023-04-26T05:13:02;98178.19;;;10.35;100.00
38530;BME280;24301;54.332;48.386;2023-04-26T05:15:28;98170.19;;;10.40;100.00
38530;BME280;24301;54.332;48.386;2023-04-26T05:17:54;98164.13;;;10.38;100.00
38530;BME280;24301;54.332;48.386;2023-04-26T05:20:22;98156.28;;;10.36;100.00
38530;BME280;24301;54.332;48.386;2023-04-26T05:22:48;98151.91;;;10.35;100.00
38530;BME280;24301;54.332;48.386;2023-04-26T05:25:14;98159.69;;;10.41;100.00
38530;BME280;24301;54.332;48.386;2023-04-26T05:27:43;98154.28;;;10.46;100.00
38530;BME280;24301;54.332;48.386;2023-04-26T05:30:19;98153.69;;;10.34;100.00
38530;BME280;24301;54.332;48.386;2023-04-26T05:33:03;98172.81;;;10.41;100.00
38530;BME280;24301;54.332;48.386;2023-04-26T05:35:40;98176.88;;;10.53;100.00
38530;BME280;24301;54.332;48.386;2023-04-26T05:38:06;98166.03;;;10.66;100.00
38530;BME280;24301;54.332;48.386;2023-04-26T05:40:32;98168.97;;;10.86;100.00
38530;BME280;24301;54.332;48.386;2023-04-26T05:42:58;98167.97;;;11.20;100.00
38530;BME280;24301;54.332;48.386;2023-04-26T05:45:25;98159.66;;;11.34;100.00
38530;BME280;24301;54.332;48.386;2023-04-26T05:47:51;98165.13;;;11.57;100.00
38530;BME280;24301;54.332;48.386;2023-04-26T05:50:17;98164.63;;;11.72;100.00
38530;BME280;24301;54.332;48.386;2023-04-26T05:52:43;98160.25;;;11.73;100.00
38530;BME280;24301;54.332;48.386;2023-04-26T05:55:09;98168.06;;;11.74;100.00
38530;BME280;24301;54.332;48.386;2023-04-26T05:57:35;98165.38;;;11.77;100.00
38530;BME280;24301;54.332;48.386;2023-04-26T06:00:03;98180.34;;;11.75;100.00
38530;BME280;24301;54.332;48.386;2023-04-26T06:02:40;98172.47;;;11.75;100.00
38530;BME280;24301;54.332;48.386;2023-04-26T06:05:11;98178.59;;;11.74;100.00
38530;BME280;24301;54.332;48.386;2023-04-26T06:07:37;98174.88;;;11.82;100.00
38530;BME280;24301;54.332;48.386;2023-04-26T06:10:04;98165.75;;;11.92;100.00
38530;BME280;24301;54.332;48.386;2023-04-26T06:12:31;98157.28;;;12.11;100.00
38530;BME280;24301;54.332;48.386;2023-04-26T06:14:58;98169.53;;;12.64;100.00
38530;BME280;24301;54.332;48.386;2023-04-26T06:17:26;98164.78;;;12.98;100.00
38530;BME280;24301;54.332;48.386;2023-04-26T06:19:52;98171.97;;;13.64;100.00
38530;BME280;24301;54.332;48.386;2023-04-26T06:22:18;98167.63;;;14.28;99.64
38530;BME280;24301;54.332;48.386;2023-04-26T06:24:44;98170.34;;;14.47;94.38
38530;BME280;24301;54.332;48.386;2023-04-26T06:27:09;98171.97;;;15.68;94.30
38530;BME280;24301;54.332;48.386;2023-04-26T06:29:37;98177.25;;;16.06;89.92
38530;BME280;24301;54.332;48.386;2023-04-26T06:32:03;98179.72;;;15.34;87.10
38530;BME280;24301;54.332;48.386;2023-04-26T06:34:29;98180.31;;;14.61;88.83
38530;BME280;24301;54.332;48.386;2023-04-26T06:36:55;98178.84;;;14.13;90.20
38530;BME280;24301;54.332;48.386;2023-04-26T06:39:23;98182.13;;;13.75;89.63
38530;BME280;24301;54.332;48.386;2023-04-26T06:41:50;98187.16;;;13.35;91.01
38530;BME280;24301;54.332;48.386;2023-04-26T06:44:24;98180.22;;;13.08;92.17
38530;BME280;24301;54.332;48.386;2023-04-26T06:46:53;98181.63;;;12.93;93.77
38530;BME280;24301;54.332;48.386;2023-04-26T06:49:20;98180.06;;;12.64;93.33
38530;BME280;24301;54.332;48.386;2023-04-26T06:51:46;98192.31;;;12.40;94.46
38530;BME280;24301;54.332;48.386;2023-04-26T06:54:11;98174.38;;;12.24;95.74
38530;BME280;24301;54.332;48.386;2023-04-26T06:56:37;98179.63;;;12.26;97.16
38530;BME280;24301;54.332;48.386;2023-04-26T06:59:05;98177.69;;;12.31;97.30
38530;BME280;24301;54.332;48.386;2023-04-26T07:01:32;98176.03;;;12.54;96.49
38530;BME280;24301;54.332;48.386;2023-04-26T07:03:59;98180.56;;;12.74;96.25
38530;BME280;24301;54.332;48.386;2023-04-26T07:06:29;98181.53;;;12.97;94.60
38530;BME280;24301;54.332;48.386;2023-04-26T07:08:59;98179.28;;;13.33;94.12
38530;BME280;24301;54.332;48.386;2023-04-26T07:11:25;98178.78;;;13.47;92.61
38530;BME280;24301;54.332;48.386;2023-04-26T07:13:51;98173.41;;;14.16;90.77
38530;BME280;24301;54.332;48.386;2023-04-26T07:16:17;98175.91;;;15.59;88.80
38530;BME280;24301;54.332;48.386;2023-04-26T07:18:43;98175.28;;;16.63;84.82
38530;BME280;24301;54.332;48.386;2023-04-26T07:21:09;98176.19;;;15.72;79.92
38530;BME280;24301;54.332;48.386;2023-04-26T07:23:35;98188.56;;;14.54;82.19
38530;BME280;24301;54.332;48.386;2023-04-26T07:26:01;98187.81;;;13.64;84.78
38530;BME280;24301;54.332;48.386;2023-04-26T07:28:29;98183.88;;;13.52;87.59
38530;BME280;24301;54.332;48.386;2023-04-26T07:30:58;98179.19;;;14.88;88.64
38530;BME280;24301;54.332;48.386;2023-04-26T07:33:24;98191.47;;;17.26;82.00
38530;BME280;24301;54.332;48.386;2023-04-26T07:35:54;98174.72;;;17.57;70.60
38530;BME280;24301;54.332;48.386;2023-04-26T07:38:24;98164.00;;;16.06;71.85
38530;BME280;24301;54.332;48.386;2023-04-26T07:40:50;98171.06;;;16.76;75.15
38530;BME280;24301;54.332;48.386;2023-04-26T07:43:20;98174.84;;;17.06;73.82
38530;BME280;24301;54.332;48.386;2023-04-26T07:45:46;98172.91;;;17.74;69.88
38530;BME280;24301;54.332;48.386;2023-04-26T07:48:12;98172.88;;;17.26;68.35
38530;BME280;24301;54.332;48.386;2023-04-26T07:50:38;98160.31;;;18.69;67.93
38530;BME280;24301;54.332;48.386;2023-04-26T07:53:04;98165.00;;;20.07;67.18
38530;BME280;24301;54.332;48.386;2023-04-26T07:55:30;98161.84;;;20.15;61.16
38530;BME280;24301;54.332;48.386;2023-04-26T07:57:56;98163.00;;;20.64;61.75
38530;BME280;24301;54.332;48.386;2023-04-26T08:00:22;98167.00;;;20.44;60.43
38530;BME280;24301;54.332;48.386;2023-04-26T08:02:48;98173.84;;;20.35;60.35
38530;BME280;24301;54.332;48.386;2023-04-26T08:05:14;98163.19;;;19.80;59.83
38530;BME280;24301;54.332;48.386;2023-04-26T08:07:41;98168.34;;;18.38;63.95
38530;BME280;24301;54.332;48.386;2023-04-26T08:10:08;98165.03;;;17.24;66.25
38530;BME280;24301;54.332;48.386;2023-04-26T08:12:36;98164.88;;;16.76;68.20
38530;BME280;24301;54.332;48.386;2023-04-26T08:15:03;98141.84;;;16.25;69.25
38530;BME280;24301;54.332;48.386;2023-04-26T08:17:33;98152.75;;;15.82;69.98
38530;BME280;24301;54.332;48.386;2023-04-26T08:19:59;98155.09;;;15.51;70.88
38530;BME280;24301;54.332;48.386;2023-04-26T08:22:25;98151.41;;;15.17;69.33
38530;BME280;24301;54.332;48.386;2023-04-26T08:24:54;98152.16;;;15.38;71.49
38530;BME280;24301;54.332;48.386;2023-04-26T08:27:21;98156.97;;;15.49;71.46
38530;BME280;24301;54.332;48.386;2023-04-26T08:29:47;98150.19;;;15.44;70.24
38530;BME280;24301;54.332;48.386;2023-04-26T08:32:13;98143.66;;;15.51;70.96
38530;BME280;24301;54.332;48.386;2023-04-26T08:34:39;98147.50;;;15.63;69.50
38530;BME280;24301;54.332;48.386;2023-04-26T08:37:06;98167.56;;;15.69;68.37
38530;BME280;24301;54.332;48.386;2023-04-26T08:39:32;98142.38;;;15.60;66.38
38530;BME280;24301;54.332;48.386;2023-04-26T08:42:04;98140.66;;;15.59;65.25
38530;BME280;24301;54.332;48.386;2023-04-26T08:44:33;98129.00;;;15.80;68.12
38530;BME280;24301;54.332;48.386;2023-04-26T08:49:39;98138.09;;;16.47;66.24
38530;BME280;24301;54.332;48.386;2023-04-26T08:52:10;98127.91;;;16.73;66.87
38530;BME280;24301;54.332;48.386;2023-04-26T08:54:38;98138.84;;;16.66;65.56
38530;BME280;24301;54.332;48.386;2023-04-26T08:57:08;98120.00;;;16.55;59.55
38530;BME280;24301;54.332;48.386;2023-04-26T08:59:35;98137.75;;;16.71;63.83
38530;BME280;24301;54.332;48.386;2023-04-26T09:02:04;98129.16;;;16.83;62.15
38530;BME280;24301;54.332;48.386;2023-04-26T09:04:31;98142.28;;;17.02;63.50
38530;BME280;24301;54.332;48.386;2023-04-26T09:07:00;98126.19;;;16.72;57.30
38530;BME280;24301;54.332;48.386;2023-04-26T09:09:34;98127.69;;;16.60;60.27
38530;BME280;24301;54.332;48.386;2023-04-26T09:12:04;98139.63;;;16.69;60.66
38530;BME280;24301;54.332;48.386;2023-04-26T09:14:30;98116.13;;;16.78;59.75
38530;BME280;24301;54.332;48.386;2023-04-26T09:16:56;98111.00;;;16.91;59.80
38530;BME280;24301;54.332;48.386;2023-04-26T09:19:48;98130.22;;;17.13;56.75
38530;BME280;24301;54.332;48.386;2023-04-26T09:22:26;98118.59;;;17.15;57.05
38530;BME280;24301;54.332;48.386;2023-04-26T09:24:52;98132.63;;;17.01;56.14
38530;BME280;24301;54.332;48.386;2023-04-26T09:27:18;98119.09;;;16.72;55.76
38530;BME280;24301;54.332;48.386;2023-04-26T09:37:57;98139.19;;;16.25;56.30
38530;BME280;24301;54.332;48.386;2023-04-26T09:40:25;98119.69;;;16.26;55.78
38530;BME280;24301;54.332;48.386;2023-04-26T09:43:00;98138.47;;;16.39;55.39
38530;BME280;24301;54.332;48.386;2023-04-26T09:45:27;98143.78;;;16.57;55.07
38530;BME280;24301;54.332;48.386;2023-04-26T09:47:53;98126.22;;;16.54;54.30
38530;BME280;24301;54.332;48.386;2023-04-26T09:50:29;98131.69;;;16.85;53.67
38530;BME280;24301;54.332;48.386;2023-04-26T09:52:56;98122.53;;;16.74;53.75
38530;BME280;24301;54.332;48.386;2023-04-26T09:55:27;98121.03;;;16.69;53.62
38530;BME280;24301;54.332;48.386;2023-04-26T09:57:54;98141.34;;;16.70;53.47
38530;BME280;24301;54.332;48.386;2023-04-26T10:00:20;98130.56;;;16.73;53.99
38530;BME280;24301;54.332;48.386;2023-04-26T10:02:46;98104.63;;;16.78;54.03
38530;BME280;24301;54.332;48.386;2023-04-26T10:05:12;98123.50;;;16.89;53.62
38530;BME280;24301;54.332;48.386;2023-04-26T10:07:39;98126.44;;;17.01;53.28
38530;BME280;24301;54.332;48.386;2023-04-26T10:10:07;98121.25;;;17.15;53.22
38530;BME280;24301;54.332;48.386;2023-04-26T10:12:33;98124.50;;;17.20;53.37
38530;BME280;24301;54.332;48.386;2023-04-26T10:14:59;98114.13;;;17.16;53.33
38530;BME280;24301;54.332;48.386;2023-04-26T10:17:26;98101.78;;;16.99;53.36
38530;BME280;24301;54.332;48.386;2023-04-26T10:19:54;98134.75;;;16.77;53.47
38530;BME280;24301;54.332;48.386;2023-04-26T10:22:24;98128.16;;;16.68;53.68
38530;BME280;24301;54.332;48.386;2023-04-26T10:24:53;98131.50;;;16.54;54.28
38530;BME280;24301;54.332;48.386;2023-04-26T10:30:12;98147.56;;;16.69;54.54
38530;BME280;24301;54.332;48.386;2023-04-26T10:35:18;98116.66;;;16.85;53.57
38530;BME280;24301;54.332;48.386;2023-04-26T10:40:31;98153.75;;;17.03;52.30
38530;BME280;24301;54.332;48.386;2023-04-26T10:45:45;98143.00;;;17.06;51.60
38530;BME280;24301;54.332;48.386;2023-04-26T10:48:16;98136.41;;;17.13;51.94
38530;BME280;24301;54.332;48.386;2023-04-26T10:53:31;98145.16;;;16.98;51.81
38530;BME280;24301;54.332;48.386;2023-04-26T10:55:57;98155.09;;;16.94;52.11
38530;BME280;24301;54.332;48.386;2023-04-26T10:58:33;98131.53;;;16.88;52.35
38530;BME280;24301;54.332;48.386;2023-04-26T11:01:08;98168.78;;;16.86;52.30
38530;BME280;24301;54.332;48.386;2023-04-26T11:03:39;98159.91;;;16.70;52.82
38530;BME280;24301;54.332;48.386;2023-04-26T11:06:07;98153.53;;;16.56;53.26
38530;BME280;24301;54.332;48.386;2023-04-26T11:08:34;98160.72;;;16.36;53.63
38530;BME280;24301;54.332;48.386;2023-04-26T11:11:07;98168.28;;;16.27;53.99
38530;BME280;24301;54.332;48.386;2023-04-26T11:13:36;98172.56;;;16.29;54.17
38530;BME280;24301;54.332;48.386;2023-04-26T11:16:10;98134.50;;;16.48;53.85
38530;BME280;24301;54.332;48.386;2023-04-26T11:18:40;98179.13;;;16.40;53.55
38530;BME280;24301;54.332;48.386;2023-04-26T11:21:07;98145.44;;;16.42;53.63
38530;BME280;24301;54.332;48.386;2023-04-26T11:23:34;98134.81;;;16.59;53.47
38530;BME280;24301;54.332;48.386;2023-04-26T11:26:05;98144.53;;;16.59;53.27
38530;BME280;24301;54.332;48.386;2023-04-26T11:28:35;98149.00;;;16.58;53.49
38530;BME280;24301;54.332;48.386;2023-04-26T11:31:02;98122.53;;;16.74;53.31
38530;BME280;24301;54.332;48.386;2023-04-26T11:33:29;98138.50;;;16.73;53.14
38530;BME280;24301;54.332;48.386;2023-04-26T11:35:57;98164.44;;;16.67;53.32
38530;BME280;24301;54.332;48.386;2023-04-26T11:38:27;98156.63;;;16.82;53.14
38530;BME280;24301;54.332;48.386;2023-04-26T11:41:01;98163.81;;;16.80;52.53
38530;BME280;24301;54.332;48.386;2023-04-26T11:43:37;98159.28;;;16.64;52.95
38530;BME280;24301;54.332;48.386;2023-04-26T11:46:05;98125.59;;;16.49;53.45
38530;BME280;24301;54.332;48.386;2023-04-26T11:48:33;98170.06;;;16.26;53.73
38530;BME280;24301;54.332;48.386;2023-04-26T11:51:02;98147.63;;;16.33;54.04
38530;BME280;24301;54.332;48.386;2023-04-26T11:53:41;98149.19;;;16.37;53.40
38530;BME280;24301;54.332;48.386;2023-04-26T11:56:15;98157.25;;;16.52;53.36
38530;BME280;24301;54.332;48.386;2023-04-26T11:58:49;98161.94;;;16.64;52.95
38530;BME280;24301;54.332;48.386;2023-04-26T12:01:23;98151.53;;;16.77;52.47
38530;BME280;24301;54.332;48.386;2023-04-26T12:03:51;98137.41;;;16.77;52.28
38530;BME280;24301;54.332;48.386;2023-04-26T12:06:18;98143.44;;;16.63;52.71
38530;BME280;24301;54.332;48.386;2023-04-26T12:08:51;98145.88;;;16.67;52.47
38530;BME280;24301;54.332;48.386;2023-04-26T12:11:17;98095.72;;;16.79;52.29
38530;BME280;24301;54.332;48.386;2023-04-26T12:13:45;98145.66;;;16.88;52.36
38530;BME280;24301;54.332;48.386;2023-04-26T12:16:12;98154.22;;;16.93;52.29
38530;BME280;24301;54.332;48.386;2023-04-26T12:18:39;98124.59;;;16.85;52.54
38530;BME280;24301;54.332;48.386;2023-04-26T12:21:07;98117.13;;;16.76;52.74
38530;BME280;24301;54.332;48.386;2023-04-26T12:23:38;98137.84;;;16.69;53.00
38530;BME280;24301;54.332;48.386;2023-04-26T12:26:04;98170.84;;;16.63;53.24
38530;BME280;24301;54.332;48.386;2023-04-26T12:28:31;98163.38;;;16.36;53.60
38530;BME280;24301;54.332;48.386;2023-04-26T12:30:57;98130.00;;;16.32;54.01
38530;BME280;24301;54.332;48.386;2023-04-26T12:33:23;98128.97;;;16.35;54.04
38530;BME280;24301;54.332;48.386;2023-04-26T12:35:50;98132.16;;;16.24;54.07
38530;BME280;24301;54.332;48.386;2023-04-26T12:38:17;98144.50;;;16.25;54.01
38530;BME280;24301;54.332;48.386;2023-04-26T12:40:43;98166.78;;;16.21;53.65
38530;BME280;24301;54.332;48.386;2023-04-26T12:43:09;98130.72;;;16.18;53.99
38530;BME280;24301;54.332;48.386;2023-04-26T12:45:35;98153.38;;;16.24;54.23
38530;BME280;24301;54.332;48.386;2023-04-26T12:48:01;98156.34;;;16.35;54.36
38530;BME280;24301;54.332;48.386;2023-04-26T12:50:28;98161.50;;;16.38;54.28
38530;BME280;24301;54.332;48.386;2023-04-26T12:52:54;98168.50;;;16.40;54.41
38530;BME280;24301;54.332;48.386;2023-04-26T12:55:20;98143.25;;;16.32;54.55
38530;BME280;24301;54.332;48.386;2023-04-26T12:57:46;98150.50;;;16.29;54.79
38530;BME280;24301;54.332;48.386;2023-04-26T13:00:16;98164.34;;;16.16;54.95
38530;BME280;24301;54.332;48.386;2023-04-26T13:02:47;98145.28;;;16.09;55.45
38530;BME280;24301;54.332;48.386;2023-04-26T13:05:13;98150.66;;;16.08;55.74
38530;BME280;24301;54.332;48.386;2023-04-26T13:07:42;98142.91;;;16.03;56.04
38530;BME280;24301;54.332;48.386;2023-04-26T13:10:09;98148.38;;;16.00;56.28
38530;BME280;24301;54.332;48.386;2023-04-26T13:12:36;98160.06;;;15.96;56.56
38530;BME280;24301;54.332;48.386;2023-04-26T13:15:07;98187.97;;;15.84;57.12
38530;BME280;24301;54.332;48.386;2023-04-26T13:17:35;98147.78;;;15.76;57.34
38530;BME280;24301;54.332;48.386;2023-04-26T13:20:03;98183.66;;;15.64;58.06
38530;BME280;24301;54.332;48.386;2023-04-26T13:22:32;98169.84;;;15.57;58.82
38530;BME280;24301;54.332;48.386;2023-04-26T13:24:59;98187.03;;;15.48;59.79
38530;BME280;24301;54.332;48.386;2023-04-26T13:27:25;98196.47;;;15.35;60.94
38530;BME280;24301;54.332;48.386;2023-04-26T13:29:52;98184.31;;;15.31;61.67
38530;BME280;24301;54.332;48.386;2023-04-26T13:32:18;98192.53;;;15.25;62.63